Billy Bishop Toronto City Centre Airport
CYTZ : now visible

Airfield :











YOU CAN JOIN US ON...

 
LOGIN :

Register | Disclaimer

   EN    FR    IT 

 









Legend :    VFR   Marginal VFR   IFR   Intensive IFR   Very Intensive IFR
Visi :
Ceiling :
>= 8 km
>= 3000ft
5 to 8 km
1000 to 3000 ft
1500m to 5 km
500 to 1000 ft
800 to 1500m
200 to 500 ft
< 800m
< 200 ft
Symbols :   Thunderstorms  Fog  Heavy snow  Heavy precipitations  Wind > 20 kt






- Airport Elevation : 251 ft
- IATA code : YTZ


CYTZ - Billy Bishop Toronto City Centre

CURRENT METAR :
  • 190200Z AUTO 05008KT 9SM FEW011 OVC060 03/01 A2976 RMK SLP081

EXPIRED METARs :
  • 190100Z AUTO 05009KT 9SM FEW013 OVC045 03/01 A2978 RMK SLP087
  • 190000Z AUTO 06011KT 9SM OVC041 03/01 A2978 RMK SLP087

TAF TAF CYTZ
Valid from the 19 at 02:00 until the 20 at 02:00 UTC


190138Z 1902/2002 05010KT P6SM FEW015 OVC040
TEMPO 1902/1904 5SM -RA BR BKN008 OVC015
FM190400 05008KT P6SM -RA OVC015
TEMPO 1904/1910 2SM -RASN BR OVC006
PROB30 1904/1910 OVC004
FM191000 04008KT 3SM BR OVC006
PROB30 1910/1914 1/2SM FG VV002
FM191600 03008KT P6SM BKN008 OVC015
FM192100 07006KT P6SM SCT008 OVC015
FM200000 02005KT P6SM SCT015 BKN025 RMK FCST BASED ON AUTO OBS. NXT FCST BY 190800Z



MET'MAP, your aeronautical weather chart ! - Copyright ORBIFLY December 2007 - Disclaimer

ORBIFLY MET'MAP TEAM :

Programming & Development : Alexandra Zaïnal
Concept & Development : Baudouin d'Aumeries
Co-Development & Prog : Marc-Olivier Méhu
Technical & hardware support : Manuel Goepfert

Contact : metmap@orbifly.com




SOURCES & CREDITS :

   NOAA       Earth
Advisory